Hovedside
METAR-TAF:

METAR-TAF

Lufthavner :

Ouagadougou lufthavn

Ouagadougou, Burkina Faso

breddegrad: 12-21N, lengdegrad: 001-31W, høyde over havet: 316 m

Gjeldene værobservasjon

Denne rapporten ble laget for 18 minutter siden, klokken 12:00 UTC
Vind 8 kt fra Øst
Temperatur 31°C
Luftfuktighet 14%
Trykk 1015 hPa
Sikt: 6000 m

METAR: DFFD 181200Z 08008KT 6000 NSC 31/00 Q1015 NOSIG

Tid: 12:18 (12:18 UTC)

Varsel

Denne rapporten ble laget for 7 timer og 18 minutter siden, klokken 05:00 UTC
Varsel gyldig fra 18. klokken 06 UTC til 19. klokken 12 UTC
Vind 8 kt fra Øst-nordøst
Sikt: 8000 m
Midlertidig
fra 18. klokken 06 UTC til 18. klokken 10 UTC
Sikt: 4000 m
mye støv
Midlertidig
fra 18. klokken 17 UTC til 18. klokken 20 UTC
Sikt: 4000 m
mye støv
Midlertidig
fra 19. klokken 06 UTC til 19. klokken 10 UTC
Sikt: 4000 m
mye støv

TAF: DFFD 180500Z 1806/1912 07008KT 8000 NSC TEMPO 1806/1810 4000 DU TEMPO 1817/1820 4000 DU TEMPO 1906/1910 4000 DU

Værobservasjoner og værvarsel for over 4000 flyplasser (METAR- og TAF-rapporter).

Tilgjengelige stasjoner er representert av de røde og gule prikkene på kartet.

Hold musepekeren over prikken for å se navnet på stasjonen.

Klikk så for å se værobservasjoner og -varsler.

For å forandre kartet kan du klikke på den grønne knappen med svart kryss for å zoome inn, på den grønne knappen med strek for å zoome ut, eller på de grønne pilene for å se tilstøtende kart.


METAR-TAF: